Aérodrome :
LOGIN :

S'inscrire | Disclaimer

   EN    FR    IT 

 










Légende :    VFR   VFR Marginal   IFR   IFR Intensif   IFR Très Intensif
Visi : 
Plafond : 
>= 8 km
>= 3000ft
5 à 8 km
1000 à 3000 ft
1500m à 5 km
500 à 1000 ft
800 à 1500m
200 à 500 ft
< 800m
< 200 ft
Symboles :   Orages  Brouillard  Fortes neiges  Fortes précipitations  Vent > 20 kt
SIGMETs :   Divers  Orages  Givrage  Turbulence  Onde Orograph.  Cendres Volcan.






- Altitude de l'aérodrome : -11 ft
- Code IATA : AMS


EHAM - Amsterdam Schiphol

DERNIER METAR :
  • 301025Z 29022KT 250V330 9999 FEW024 BKN029 08/03 Q1017 NOSIG

METARs EXPIRÉS :
  • 300955Z 29020KT 9999 FEW025 BKN029 08/03 Q1017 NOSIG
  • 300925Z 28021KT 9999 FEW025 BKN028 08/03 Q1017 NOSIG
  • 300855Z 28022KT 250V310 9999 FEW025 BKN030 07/03 Q1016 NOSIG
  • 300825Z 28023KT 9999 FEW028 SCT033 07/03 Q1015 NOSIG
  • 300755Z 28021KT 9999 SCT028 07/03 Q1015 NOSIG

TAF COR TAF EHAM
Valide du 30 à 06h jusqu'au 31 à 12h UTC


300509Z 3006/3112 29020G30KT 9999 FEW025
BECMG 3012/3015 31017KT
PROB30
TEMPO 3012/3016 7000 -SHRA FEW020TCU SCT040
BECMG 3015/3018 30011KT
BECMG 3021/3024 25008KT
BECMG 3107/3110 25017KT BKN015
TEMPO 3108/3112 5000 DZRA SCT008 BKN012



MET'MAP, la Météo Aéronautique d'un coup d'oeil ! - Copyright ORBIFLY Décembre 2007 - Disclaimer

ORBIFLY MET'MAP TEAM :

Programmation & Développement : Alexandra Zaïnal
Sur une idée originale de : Baudouin d'Aumeries
Soutien technique & logistique : Manuel Goepfert
Assistance : Marc-Olivier Méhu




SOURCES & CREDITS :

   NOAA